Time;durP1;ratioP1;P1;durP2;ratioP2;P2;SDS_P1;SDS_P2;PMS_P1;PMS_P2;Temp;Humidity;BMP_temperature;BMP_pressure;BME280_temperature;BME280_humidity;BME280_pressure;Samples;Min_cycle;Max_cycle;Signal;HPM_P1;HPM_P2
2023/05/09 00:02:11;;;;;;;;;;;;;;;3.08;74.29;101828.19;102547;278;114070;-54
2023/05/09 00:04:55;;;;;;;;;;;;;;;3.02;74.45;101827.52;102554;278;92738;-54
2023/05/09 00:07:31;;;;;;;;;;;;;;;2.97;74.58;101825.19;102584;266;97236;-56
2023/05/09 00:10:07;;;;;;;;;;;;;;;2.89;74.61;101824.28;102547;266;117482;-56
2023/05/09 00:12:42;;;;;;;;;;;;;;;2.85;74.77;101820.29;102569;278;103527;-56
2023/05/09 00:15:17;;;;;;;;;;;;;;;2.80;74.76;101821.22;102547;278;115145;-56
2023/05/09 00:17:53;;;;;;;;;;;;;;;2.73;74.88;101819.86;102562;278;94975;-56
2023/05/09 00:20:29;;;;;;;;;;;;;;;2.69;75.11;101818.92;102600;278;96578;-57
2023/05/09 00:23:02;;;;;;;;;;;;;;;2.68;75.14;101816.13;102569;278;118640;-55
2023/05/09 00:25:37;;;;;;;;;;;;;;;2.70;75.25;101813.56;102592;278;103942;-55
2023/05/09 00:28:12;;;;;;;;;;;;;;;2.72;75.35;101810.20;102542;278;112624;-54
2023/05/09 00:30:47;;;;;;;;;;;;;;;2.71;75.59;101809.34;102557;278;94526;-55
2023/05/09 00:33:25;;;;;;;;;;;;;;;2.72;75.62;101808.60;102552;278;96775;-55
2023/05/09 00:35:59;;;;;;;;;;;;;;;2.71;75.80;101806.19;102578;278;118138;-56
2023/05/09 00:38:38;;;;;;;;;;;;;;;2.69;75.86;101805.42;102512;278;104354;-56
2023/05/09 00:41:17;;;;;;;;;;;;;;;2.71;75.98;101805.99;102551;278;113530;-54
2023/05/09 00:43:54;;;;;;;;;;;;;;;2.72;76.03;101809.10;102503;278;96049;-56
2023/05/09 00:46:27;;;;;;;;;;;;;;;2.70;76.05;101805.51;102551;278;95817;-54
2023/05/09 00:48:59;;;;;;;;;;;;;;;2.70;75.98;101807.30;102534;278;119085;-55
2023/05/09 00:51:36;;;;;;;;;;;;;;;2.66;75.91;101806.49;102568;278;105602;-56
2023/05/09 00:54:10;;;;;;;;;;;;;;;2.59;75.96;101807.20;102533;270;115035;-55
2023/05/09 00:56:43;;;;;;;;;;;;;;;2.54;75.96;101811.42;102496;278;91674;-56
2023/05/09 00:59:18;;;;;;;;;;;;;;;2.47;75.97;101804.80;102566;278;98312;-56
2023/05/09 01:01:53;;;;;;;;;;;;;;;2.43;76.03;101804.56;102524;278;119273;-54
2023/05/09 01:04:30;;;;;;;;;;;;;;;2.38;76.06;101802.33;102525;278;106046;-54
2023/05/09 01:07:06;;;;;;;;;;;;;;;2.36;75.99;101805.73;102544;278;112413;-55
2023/05/09 01:09:46;;;;;;;;;;;;;;;2.36;76.10;101805.90;102474;278;94755;-55
2023/05/09 01:12:29;;;;;;;;;;;;;;;2.35;76.50;101805.74;102447;279;97476;-55
2023/05/09 01:15:12;;;;;;;;;;;;;;;2.33;76.51;101805.60;102409;279;120079;-55
2023/05/09 01:17:50;;;;;;;;;;;;;;;2.32;76.70;101806.67;102437;279;105209;-55
2023/05/09 01:20:38;;;;;;;;;;;;;;;2.32;76.78;101803.30;102382;279;113874;-55
2023/05/09 01:23:40;;;;;;;;;;;;;;;2.32;76.75;101805.43;102394;279;95959;-55
2023/05/09 01:26:23;;;;;;;;;;;;;;;2.31;76.90;101805.69;102405;279;97637;-54
2023/05/09 01:29:30;;;;;;;;;;;;;;;2.29;76.83;101804.77;102447;279;118519;-54
2023/05/09 01:32:04;;;;;;;;;;;;;;;2.22;76.84;101805.63;102417;279;105446;-54
2023/05/09 01:34:41;;;;;;;;;;;;;;;2.20;76.86;101807.17;102390;279;114107;-52
2023/05/09 01:37:15;;;;;;;;;;;;;;;2.15;76.93;101806.25;102405;279;92169;-55
2023/05/09 01:39:53;;;;;;;;;;;;;;;2.11;76.93;101804.73;102447;279;95242;-56
2023/05/09 01:42:29;;;;;;;;;;;;;;;2.07;76.93;101805.37;102404;279;119805;-55
2023/05/09 01:45:05;;;;;;;;;;;;;;;2.01;76.87;101808.75;102436;279;106058;-56
2023/05/09 01:47:40;;;;;;;;;;;;;;;1.95;76.98;101803.50;102447;279;113138;-55
2023/05/09 01:50:19;;;;;;;;;;;;;;;1.92;77.05;101809.92;102418;279;94151;-56
2023/05/09 01:52:57;;;;;;;;;;;;;;;1.91;77.19;101808.92;102470;279;97333;-54
2023/05/09 01:55:35;;;;;;;;;;;;;;;1.89;77.22;101810.66;102451;279;118197;-54
2023/05/09 01:58:12;;;;;;;;;;;;;;;1.86;77.33;101808.16;102501;279;104925;-53
2023/05/09 02:00:50;;;;;;;;;;;;;;;1.83;77.45;101805.16;102491;279;114022;-54
2023/05/09 02:03:25;;;;;;;;;;;;;;;1.84;77.42;101802.64;102415;279;95457;-53
2023/05/09 02:05:58;;;;;;;;;;;;;;;1.85;77.45;101801.17;102480;279;96410;-53
2023/05/09 02:08:31;;;;;;;;;;;;;;;1.88;77.42;101801.84;102429;279;118148;-52
2023/05/09 02:11:03;;;;;;;;;;;;;;;1.85;77.40;101798.31;102467;279;105856;-55
2023/05/09 02:13:38;;;;;;;;;;;;;;;1.84;77.42;101795.71;102385;279;114696;-55
2023/05/09 02:16:17;;;;;;;;;;;;;;;1.82;77.28;101801.85;102399;279;92404;-55
2023/05/09 02:18:52;;;;;;;;;;;;;;;1.75;77.48;101798.02;102406;279;96503;-55
2023/05/09 02:21:29;;;;;;;;;;;;;;;1.74;77.44;101797.55;102138;279;380342;-54
2023/05/09 02:24:09;;;;;;;;;;;;;;;1.66;77.46;101798.77;102415;279;105503;-54
2023/05/09 02:26:51;;;;;;;;;;;;;;;1.56;77.47;101805.86;102425;279;114967;-54
2023/05/09 02:29:38;;;;;;;;;;;;;;;1.50;77.65;101805.88;102367;279;96004;-53
2023/05/09 02:32:15;;;;;;;;;;;;;;;1.45;77.66;101803.34;102413;279;97613;-53
2023/05/09 02:34:52;;;;;;;;;;;;;;;1.43;77.73;101803.65;102448;279;118070;-53
2023/05/09 02:37:34;;;;;;;;;;;;;;;1.39;77.80;101801.23;102443;279;105653;-54
2023/05/09 02:40:09;;;;;;;;;;;;;;;1.40;77.91;101801.90;102407;279;113190;-55
2023/05/09 02:42:46;;;;;;;;;;;;;;;1.43;78.01;101799.77;102473;279;95465;-55
2023/05/09 02:45:21;;;;;;;;;;;;;;;1.42;78.03;101803.91;102468;279;97792;-55
2023/05/09 02:47:59;;;;;;;;;;;;;;;1.40;77.94;101803.47;102457;279;118404;-56
2023/05/09 02:50:38;;;;;;;;;;;;;;;1.34;78.21;101807.09;102444;279;106383;-55
2023/05/09 02:53:13;;;;;;;;;;;;;;;1.35;78.37;101807.76;102387;279;115207;-56
2023/05/09 02:55:52;;;;;;;;;;;;;;;1.38;78.38;101803.42;102473;279;92873;-54
2023/05/09 02:58:27;;;;;;;;;;;;;;;1.40;78.54;101802.74;102428;279;95861;-53
2023/05/09 03:01:02;;;;;;;;;;;;;;;1.46;78.42;101798.89;102415;279;119521;-55
2023/05/09 03:03:41;;;;;;;;;;;;;;;1.48;78.47;101799.64;102403;279;103808;-55
2023/05/09 03:06:14;;;;;;;;;;;;;;;1.47;78.54;101803.23;102424;279;114584;-56
2023/05/09 03:08:54;;;;;;;;;;;;;;;1.48;78.65;101803.31;102414;279;93140;-55
2023/05/09 03:11:32;;;;;;;;;;;;;;;1.50;78.69;101802.86;102442;279;96670;-56
2023/05/09 03:14:09;;;;;;;;;;;;;;;1.52;78.73;101804.16;102396;279;120278;-55
2023/05/09 03:16:45;;;;;;;;;;;;;;;1.54;78.82;101806.70;102427;279;105306;-56
2023/05/09 03:19:20;;;;;;;;;;;;;;;1.61;78.89;101804.65;102398;279;114807;-56
2023/05/09 03:21:53;;;;;;;;;;;;;;;1.67;79.05;101798.40;102409;279;95138;-54
2023/05/09 03:24:31;;;;;;;;;;;;;;;1.76;79.04;101798.33;102436;279;95820;-55
2023/05/09 03:27:06;;;;;;;;;;;;;;;1.87;78.98;101800.46;102408;279;118581;-56
2023/05/09 03:29:40;;;;;;;;;;;;;;;1.93;79.26;101799.20;102451;279;105801;-56
2023/05/09 03:32:16;;;;;;;;;;;;;;;2.05;79.19;101797.83;102449;279;113977;-53
2023/05/09 03:34:53;;;;;;;;;;;;;;;2.18;79.24;101798.36;102459;279;94254;-53
2023/05/09 03:37:30;;;;;;;;;;;;;;;2.36;79.27;101799.27;102470;279;96567;-56
2023/05/09 03:40:06;;;;;;;;;;;;;;;3.25;79.35;101800.89;102481;279;119927;-57
2023/05/09 03:42:47;;;;;;;;;;;;;;;4.71;78.65;101796.09;102429;267;106020;-56
2023/05/09 03:45:23;;;;;;;;;;;;;;;6.26;77.44;101790.67;102446;279;112368;-57
2023/05/09 03:47:58;;;;;;;;;;;;;;;7.73;75.56;101787.94;102421;279;93210;-56
2023/05/09 03:50:30;;;;;;;;;;;;;;;8.88;74.03;101791.55;102470;279;95254;-55
2023/05/09 03:53:04;;;;;;;;;;;;;;;9.92;72.44;101783.59;102393;279;118594;-58
2023/05/09 03:55:41;;;;;;;;;;;;;;;10.96;71.36;101780.98;102410;279;104120;-54
2023/05/09 03:58:14;;;;;;;;;;;;;;;11.95;69.98;101781.82;102422;279;113313;-54
2023/05/09 04:00:50;;;;;;;;;;;;;;;12.80;68.67;101778.54;102389;279;94432;-54
2023/05/09 04:03:25;;;;;;;;;;;;;;;13.65;67.65;101778.28;102385;267;95843;-54
2023/05/09 04:06:01;;;;;;;;;;;;;;;14.39;66.03;101773.58;102435;267;120491;-57
2023/05/09 04:08:34;;;;;;;;;;;;;;;14.53;63.32;101773.84;102432;279;104949;-57
2023/05/09 04:11:07;;;;;;;;;;;;;;;13.40;62.13;101776.34;102430;279;114264;-55
2023/05/09 04:13:44;;;;;;;;;;;;;;;11.89;62.64;101778.11;102389;279;94793;-54
2023/05/09 04:16:21;;;;;;;;;;;;;;;10.79;62.91;101782.57;102444;279;96826;-54
2023/05/09 04:18:54;;;;;;;;;;;;;;;9.82;63.96;101784.92;102511;279;120051;-54
2023/05/09 04:21:30;;;;;;;;;;;;;;;9.36;64.45;101788.07;102496;279;105693;-57
2023/05/09 04:24:04;;;;;;;;;;;;;;;9.14;64.62;101789.48;102468;279;114095;-58
2023/05/09 04:26:37;;;;;;;;;;;;;;;8.85;65.04;101794.10;102461;279;94743;-56
2023/05/09 04:29:14;;;;;;;;;;;;;;;8.55;65.69;101790.48;102442;279;97724;-56
2023/05/09 04:31:51;;;;;;;;;;;;;;;8.36;66.27;101789.77;102424;279;119504;-54
2023/05/09 04:34:24;;;;;;;;;;;;;;;8.29;66.75;101791.02;102405;279;106277;-54
2023/05/09 04:36:57;;;;;;;;;;;;;;;8.29;67.06;101788.56;102432;279;113565;-57
2023/05/09 04:39:34;;;;;;;;;;;;;;;8.29;67.36;101788.57;102363;279;94202;-56
2023/05/09 04:42:10;;;;;;;;;;;;;;;8.36;67.59;101789.32;102413;279;97102;-56
2023/05/09 04:44:46;;;;;;;;;;;;;;;8.81;68.03;101796.38;102393;268;119456;-56
2023/05/09 04:47:20;;;;;;;;;;;;;;;10.92;68.27;101787.95;102418;279;104251;-57
2023/05/09 04:49:54;;;;;;;;;;;;;;;13.78;66.63;101776.43;102374;279;112877;-56
2023/05/09 04:52:32;;;;;;;;;;;;;;;16.05;63.31;101770.41;102431;279;95055;-54
2023/05/09 04:55:07;;;;;;;;;;;;;;;17.72;60.65;101770.48;102419;279;98397;-54
2023/05/09 04:57:42;;;;;;;;;;;;;;;19.14;58.13;101771.43;102430;279;120226;-54
2023/05/09 05:00:17;;;;;;;;;;;;;;;20.56;55.65;101772.72;102450;279;105009;-55
2023/05/09 05:02:54;;;;;;;;;;;;;;;21.62;52.50;101776.98;102472;279;114451;-55
2023/05/09 05:05:31;;;;;;;;;;;;;;;22.39;50.70;101774.56;102417;279;93961;-55
2023/05/09 05:08:04;;;;;;;;;;;;;;;23.01;49.35;101772.09;102469;279;95996;-58
2023/05/09 05:10:37;;;;;;;;;;;;;;;23.76;46.90;101764.80;102508;279;118720;-58
2023/05/09 05:13:16;;;;;;;;;;;;;;;24.23;44.82;101765.80;102455;279;103553;-58
2023/05/09 05:15:49;;;;;;;;;;;;;;;24.76;43.04;101769.81;102436;279;113607;-55
2023/05/09 05:18:31;;;;;;;;;;;;;;;25.20;40.52;101771.21;102442;279;94484;-56
2023/05/09 05:21:08;;;;;;;;;;;;;;;25.69;38.62;101769.77;102481;279;96749;-56
2023/05/09 05:23:48;;;;;;;;;;;;;;;26.19;36.92;101767.92;102404;279;120047;-55
2023/05/09 05:26:27;;;;;;;;;;;;;;;26.76;35.99;101765.65;102425;279;104982;-56
2023/05/09 05:29:03;;;;;;;;;;;;;;;27.41;34.74;101759.99;102375;279;114784;-55
2023/05/09 05:31:45;;;;;;;;;;;;;;;27.66;34.00;101761.42;102392;279;93690;-55
2023/05/09 05:34:22;;;;;;;;;;;;;;;27.90;32.97;101759.48;102383;279;97303;-55
2023/05/09 05:36:56;;;;;;;;;;;;;;;28.26;31.89;101758.37;102418;279;118312;-55
2023/05/09 05:39:29;;;;;;;;;;;;;;;28.22;31.43;101753.41;102395;279;105294;-55
2023/05/09 05:42:02;;;;;;;;;;;;;;;28.56;29.36;101755.88;102406;279;114309;-55
2023/05/09 05:44:38;;;;;;;;;;;;;;;28.50;28.13;101753.19;102400;279;93169;-59
2023/05/09 05:47:17;;;;;;;;;;;;;;;28.40;27.42;101749.95;102468;267;97121;-59
2023/05/09 05:49:54;;;;;;;;;;;;;;;28.88;27.62;101748.18;102444;279;118931;-60
2023/05/09 05:52:31;;;;;;;;;;;;;;;29.13;27.18;101748.08;102475;279;105308;-61
2023/05/09 05:55:05;;;;;;;;;;;;;;;29.32;26.81;101746.57;102470;279;114964;-61
2023/05/09 05:57:45;;;;;;;;;;;;;;;29.51;26.21;101750.14;102494;279;93593;-55
2023/05/09 06:00:19;;;;;;;;;;;;;;;29.60;25.99;101749.34;102529;279;97455;-55
2023/05/09 06:03:05;;;;;;;;;;;;;;;29.88;25.26;101749.98;102402;279;120071;-59
2023/05/09 06:05:38;;;;;;;;;;;;;;;30.56;24.99;101744.20;102425;279;104433;-55
2023/05/09 06:08:12;;;;;;;;;;;;;;;30.88;24.74;101737.84;102448;279;113570;-55
2023/05/09 06:10:54;;;;;;;;;;;;;;;30.87;23.77;101736.02;102407;279;93595;-55
2023/05/09 06:13:31;;;;;;;;;;;;;;;31.02;23.43;101733.54;102443;279;96189;-55
2023/05/09 06:16:04;;;;;;;;;;;;;;;31.10;23.17;101736.59;102412;279;120826;-59
2023/05/09 06:18:40;;;;;;;;;;;;;;;31.24;22.15;101732.77;102412;279;103138;-58
2023/05/09 06:21:14;;;;;;;;;;;;;;;31.37;21.12;101738.11;102417;279;113319;-58
2023/05/09 06:23:50;;;;;;;;;;;;;;;31.46;21.81;101735.62;102459;279;92475;-63
2023/05/09 06:26:27;;;;;;;;;;;;;;;31.83;21.53;101738.15;102409;279;97385;-61
2023/05/09 06:29:05;;;;;;;;;;;;;;;32.08;20.70;101740.90;102452;279;119755;-62
2023/05/09 06:31:39;;;;;;;;;;;;;;;31.95;20.07;101741.14;102439;279;104637;-61
2023/05/09 06:34:19;;;;;;;;;;;;;;;31.98;19.74;101742.77;102418;279;114538;-62
2023/05/09 06:36:52;;;;;;;;;;;;;;;31.90;19.37;101740.58;102395;279;93551;-62
2023/05/09 06:39:26;;;;;;;;;;;;;;;31.76;18.72;101743.79;102423;279;97274;-56
2023/05/09 06:42:00;;;;;;;;;;;;;;;31.86;18.79;101742.94;102441;279;117709;-56
2023/05/09 06:44:33;;;;;;;;;;;;;;;31.59;18.56;101741.02;102440;279;103516;-55
2023/05/09 06:47:10;;;;;;;;;;;;;;;31.36;18.60;101746.95;102489;279;114542;-56
2023/05/09 06:49:47;;;;;;;;;;;;;;;31.08;18.76;101743.65;102491;279;94535;-55
2023/05/09 06:52:25;;;;;;;;;;;;;;;31.46;18.43;101744.34;102475;279;98165;-55
2023/05/09 06:55:00;;;;;;;;;;;;;;;31.34;18.22;101737.59;102473;279;118528;-55
2023/05/09 06:57:39;;;;;;;;;;;;;;;31.32;18.25;101734.58;102459;279;104464;-55
2023/05/09 07:00:14;;;;;;;;;;;;;;;31.52;18.13;101732.70;102403;279;114906;-55
2023/05/09 07:02:52;;;;;;;;;;;;;;;31.84;17.91;101732.27;102469;279;93764;-59
2023/05/09 07:05:35;;;;;;;;;;;;;;;31.54;17.75;101726.77;102453;279;97816;-56
2023/05/09 07:08:18;;;;;;;;;;;;;;;31.11;17.42;101725.76;102396;279;119618;-56
2023/05/09 07:10:51;;;;;;;;;;;;;;;31.00;17.51;101726.52;102464;279;106026;-57
2023/05/09 07:13:28;;;;;;;;;;;;;;;30.79;17.98;101722.56;102442;279;112689;-58
2023/05/09 07:16:06;;;;;;;;;;;;;;;31.29;18.09;101723.56;102373;279;93014;-57
2023/05/09 07:18:40;;;;;;;;;;;;;;;31.59;18.04;101726.44;102439;279;97018;-58
2023/05/09 07:21:20;;;;;;;;;;;;;;;31.69;17.87;101725.02;102434;279;118274;-55
2023/05/09 07:23:56;;;;;;;;;;;;;;;31.57;17.43;101722.83;102383;279;104248;-56
2023/05/09 07:26:35;;;;;;;;;;;;;;;31.29;17.03;101719.04;102431;279;114621;-58
2023/05/09 07:29:08;;;;;;;;;;;;;;;31.20;17.02;101716.50;102473;279;94931;-56
2023/05/09 07:31:42;;;;;;;;;;;;;;;30.89;17.57;101713.98;102460;279;96016;-65
2023/05/09 07:34:16;;;;;;;;;;;;;;;30.89;17.44;101711.48;102461;279;118411;-65
2023/05/09 07:36:57;;;;;;;;;;;;;;;31.03;17.59;101707.07;102459;279;105336;-65
2023/05/09 07:39:32;;;;;;;;;;;;;;;31.41;17.85;101699.86;102422;279;114497;-64
2023/05/09 07:42:12;;;;;;;;;;;;;;;31.48;17.50;101701.08;102517;279;95252;-63
2023/05/09 07:44:46;;;;;;;;;;;;;;;31.37;17.23;101694.24;102423;279;96792;-62
2023/05/09 07:47:24;;;;;;;;;;;;;;;31.03;16.81;101694.48;102441;279;117620;-65
2023/05/09 07:49:59;;;;;;;;;;;;;;;30.90;17.05;101695.89;102419;279;104668;-63
2023/05/09 07:52:36;;;;;;;;;;;;;;;30.85;16.51;101691.08;102443;279;114079;-64
2023/05/09 07:55:12;;;;;;;;;;;;;;;30.66;16.42;101691.30;102446;279;92754;-63
2023/05/09 07:57:45;;;;;;;;;;;;;;;30.41;16.63;101683.86;102447;279;97302;-62
2023/05/09 08:00:22;;;;;;;;;;;;;;;29.94;16.40;101690.02;102395;279;119852;-61
2023/05/09 08:02:56;;;;;;;;;;;;;;;29.55;17.44;101689.02;102432;279;103010;-61
2023/05/09 08:05:32;;;;;;;;;;;;;;;29.62;17.31;101690.55;102398;279;113184;-63
2023/05/09 08:08:08;;;;;;;;;;;;;;;29.75;17.15;101689.14;102391;267;94992;-61
2023/05/09 08:10:46;;;;;;;;;;;;;;;29.58;17.15;101689.95;102468;279;97947;-61
2023/05/09 08:13:23;;;;;;;;;;;;;;;29.45;17.15;101688.67;102423;279;119286;-63
2023/05/09 08:15:57;;;;;;;;;;;;;;;29.73;17.86;101675.19;102456;279;105519;-62
2023/05/09 08:18:32;;;;;;;;;;;;;;;30.24;17.80;101680.72;102421;275;112755;-63
2023/05/09 08:21:10;;;;;;;;;;;;;;;29.90;15.72;101676.21;102395;279;95057;-63
2023/05/09 08:23:44;;;;;;;;;;;;;;;29.24;16.12;101673.85;102425;279;97205;-64
2023/05/09 08:26:22;;;;;;;;;;;;;;;28.84;16.58;101671.41;102441;279;118212;-64
2023/05/09 08:28:59;;;;;;;;;;;;;;;28.99;16.70;101668.39;102489;279;105303;-65
2023/05/09 08:31:39;;;;;;;;;;;;;;;29.10;17.17;101668.34;102498;279;112968;-65
2023/05/09 08:34:14;;;;;;;;;;;;;;;28.97;16.83;101671.22;102496;279;94195;-64
2023/05/09 08:36:49;;;;;;;;;;;;;;;28.78;16.24;101666.67;102461;279;96480;-62
2023/05/09 08:39:27;;;;;;;;;;;;;;;28.20;16.27;101655.96;102472;279;119813;-63
2023/05/09 08:42:02;;;;;;;;;;;;;;;28.41;16.71;101656.88;102460;279;105625;-65
2023/05/09 08:44:38;;;;;;;;;;;;;;;28.35;16.25;101658.27;102389;279;112629;-64
2023/05/09 08:47:14;;;;;;;;;;;;;;;27.70;15.86;101661.92;102423;279;94431;-64
2023/05/09 08:49:48;;;;;;;;;;;;;;;27.75;16.93;101648.77;102451;275;97629;-64
2023/05/09 08:52:30;;;;;;;;;;;;;;;27.89;17.14;101646.75;102431;279;119795;-64
2023/05/09 08:55:05;;;;;;;;;;;;;;;27.53;16.36;101649.41;102416;279;104378;-65
2023/05/09 08:57:40;;;;;;;;;;;;;;;26.71;16.24;101643.00;102443;279;113363;-55
2023/05/09 09:03:30;;;;;;;;;;;;;;;26.23;17.35;101638.30;102492;277;96012;-55
2023/05/09 09:06:09;;;;;;;;;;;;;;;26.42;17.15;101631.17;102590;278;118293;-57
2023/05/09 09:08:47;;;;;;;;;;;;;;;25.71;17.04;101629.33;102577;266;103914;-57
2023/05/09 09:11:25;;;;;;;;;;;;;;;25.24;17.35;101640.11;102533;278;114058;-55
2023/05/09 09:14:01;;;;;;;;;;;;;;;24.31;17.82;101649.11;102543;278;94066;-55
2023/05/09 09:16:35;;;;;;;;;;;;;;;23.23;18.34;101649.73;102583;278;96804;-55
2023/05/09 09:19:11;;;;;;;;;;;;;;;22.38;18.95;101646.85;102543;278;118754;-54
2023/05/09 09:21:47;;;;;;;;;;;;;;;22.00;19.45;101641.77;102540;278;104812;-58
2023/05/09 09:24:22;;;;;;;;;;;;;;;21.87;19.99;101634.58;102553;278;113028;-58
2023/05/09 09:26:55;;;;;;;;;;;;;;;21.93;20.18;101628.16;102542;294;92811;-55
2023/05/09 09:29:29;;;;;;;;;;;;;;;22.26;20.49;101622.63;102736;277;97662;-54
2023/05/09 09:32:06;;;;;;;;;;;;;;;22.26;20.20;101623.27;102775;277;118022;-54
2023/05/09 09:34:42;;;;;;;;;;;;;;;21.83;20.02;101633.13;102804;277;103767;-64
2023/05/09 09:37:25;;;;;;;;;;;;;;;21.33;20.34;101638.36;102771;277;113591;-62
2023/05/09 09:40:02;;;;;;;;;;;;;;;21.31;20.93;101629.50;102734;277;94588;-61
2023/05/09 09:42:44;;;;;;;;;;;;;;;21.32;20.56;101622.71;102758;277;96487;-59
2023/05/09 09:45:18;;;;;;;;;;;;;;;21.30;20.76;101626.82;102789;277;119806;-59
2023/05/09 09:47:56;;;;;;;;;;;;;;;21.32;21.03;101618.86;102767;277;103154;-59
2023/05/09 09:50:37;;;;;;;;;;;;;;;21.38;21.02;101616.73;102732;277;113323;-60
2023/05/09 09:53:09;;;;;;;;;;;;;;;21.29;20.77;101625.08;102557;279;93202;-62
2023/05/09 09:55:52;;;;;;;;;;;;;;;20.83;20.54;101632.71;102787;277;96377;-61
2023/05/09 09:58:33;;;;;;;;;;;;;;;20.46;20.91;101620.92;102747;277;118124;-57
2023/05/09 10:01:09;;;;;;;;;;;;;;;20.64;21.19;101618.58;102714;277;104833;-55
2023/05/09 10:03:48;;;;;;;;;;;;;;;20.40;21.03;101616.20;102722;277;114194;-57
2023/05/09 10:06:22;;;;;;;;;;;;;;;20.34;21.53;101612.29;102714;277;93902;-57
2023/05/09 10:09:01;;;;;;;;;;;;;;;20.31;21.18;101613.98;102765;277;96092;-56
2023/05/09 10:11:37;;;;;;;;;;;;;;;20.22;21.59;101607.80;102777;277;118202;-55
2023/05/09 10:14:18;;;;;;;;;;;;;;;20.28;21.50;101602.46;102740;277;105637;-54
2023/05/09 10:16:54;;;;;;;;;;;;;;;20.24;21.31;101598.42;102786;277;114100;-58
2023/05/09 10:19:29;;;;;;;;;;;;;;;20.50;21.77;101595.80;102127;277;873719;-57
2023/05/09 10:22:09;;;;;;;;;;;;;;;20.55;21.77;101597.40;102643;267;97904;-57
2023/05/09 10:24:47;;;;;;;;;;;;;;;20.43;21.65;101595.84;102774;277;119720;-57
2023/05/09 10:27:27;;;;;;;;;;;;;;;20.37;21.72;101594.54;102789;277;104226;-55
2023/05/09 10:30:07;;;;;;;;;;;;;;;20.06;21.94;101596.83;102813;277;113928;-54
2023/05/09 10:32:48;;;;;;;;;;;;;;;19.92;21.61;101600.73;102758;277;92622;-55
2023/05/09 10:35:25;;;;;;;;;;;;;;;19.68;21.39;101596.02;102757;277;97698;-54
2023/05/09 10:38:00;;;;;;;;;;;;;;;19.57;21.79;101588.92;102759;277;119414;-54
2023/05/09 10:40:41;;;;;;;;;;;;;;;19.47;22.08;101588.63;102747;277;104165;-54
2023/05/09 10:43:18;;;;;;;;;;;;;;;19.53;22.26;101588.08;102715;277;114694;-54
2023/05/09 10:45:52;;;;;;;;;;;;;;;19.49;22.45;101583.95;102749;266;95415;-55
2023/05/09 10:48:30;;;;;;;;;;;;;;;19.52;22.74;101574.44;102764;277;97995;-55
2023/05/09 10:51:16;;;;;;;;;;;;;;;19.56;22.65;101567.28;102686;277;120212;-57
2023/05/09 10:53:56;;;;;;;;;;;;;;;19.46;23.06;101568.81;102762;277;105700;-56
2023/05/09 10:56:34;;;;;;;;;;;;;;;19.47;23.30;101571.68;102504;277;114154;-55
2023/05/09 10:59:25;;;;;;;;;;;;;;;19.56;23.25;101568.01;102729;277;95028;-53
2023/05/09 11:02:03;;;;;;;;;;;;;;;19.61;22.99;101559.58;102755;277;97414;-55
2023/05/09 11:04:39;;;;;;;;;;;;;;;19.67;23.11;101551.23;102766;277;118622;-55
2023/05/09 11:07:25;;;;;;;;;;;;;;;19.57;23.01;101546.95;102780;277;105258;-57
2023/05/09 11:10:09;;;;;;;;;;;;;;;19.42;23.46;101546.23;102759;277;114909;-55
2023/05/09 11:12:59;;;;;;;;;;;;;;;19.41;23.50;101553.79;102786;277;94410;-56
2023/05/09 11:15:33;;;;;;;;;;;;;;;19.25;23.33;101539.63;102788;277;95564;-53
2023/05/09 11:18:12;;;;;;;;;;;;;;;19.19;23.32;101531.91;102749;277;116983;-55
2023/05/09 11:20:51;;;;;;;;;;;;;;;19.30;23.39;101525.33;102571;277;105137;-56
2023/05/09 11:23:30;;;;;;;;;;;;;;;19.46;23.86;101532.30;102738;277;112882;-55
2023/05/09 11:26:09;;;;;;;;;;;;;;;19.41;23.19;101529.42;102754;277;93884;-53
2023/05/09 11:28:54;;;;;;;;;;;;;;;19.16;23.11;101528.80;102729;277;96925;-54
2023/05/09 11:31:30;;;;;;;;;;;;;;;19.09;23.31;101520.73;102728;277;118401;-54
2023/05/09 11:34:09;;;;;;;;;;;;;;;18.96;23.52;101518.48;102714;277;104039;-55
2023/05/09 11:36:47;;;;;;;;;;;;;;;18.80;23.71;101510.63;102718;277;113300;-55
2023/05/09 11:39:29;;;;;;;;;;;;;;;18.74;23.59;101505.34;102750;266;95033;-66
2023/05/09 11:42:04;;;;;;;;;;;;;;;18.73;23.74;101496.20;102740;277;98030;-64
2023/05/09 11:44:43;;;;;;;;;;;;;;;18.65;23.52;101493.53;102722;277;119997;-55
2023/05/09 11:47:20;;;;;;;;;;;;;;;18.49;23.81;101493.79;102772;277;104298;-63
2023/05/09 11:49:56;;;;;;;;;;;;;;;18.32;23.99;101483.83;102764;277;113022;-56
2023/05/09 11:52:35;;;;;;;;;;;;;;;18.26;24.02;101475.30;102777;277;92815;-57
2023/05/09 11:55:10;;;;;;;;;;;;;;;18.38;24.38;101475.05;102782;277;97021;-55
2023/05/09 11:57:45;;;;;;;;;;;;;;;18.59;24.95;101468.41;102768;277;119042;-54
2023/05/09 12:00:21;;;;;;;;;;;;;;;18.76;24.96;101464.02;102774;277;105291;-55
2023/05/09 12:02:54;;;;;;;;;;;;;;;18.75;24.68;101467.98;102782;277;114798;-53
2023/05/09 12:05:30;;;;;;;;;;;;;;;18.55;24.55;101476.17;102765;277;94772;-57
2023/05/09 12:08:08;;;;;;;;;;;;;;;18.49;24.58;101460.63;102752;277;97246;-56
2023/05/09 12:10:43;;;;;;;;;;;;;;;18.48;24.74;101456.41;102786;277;118228;-55
2023/05/09 12:13:20;;;;;;;;;;;;;;;18.44;24.85;101461.49;102768;277;105432;-56
2023/05/09 12:16:01;;;;;;;;;;;;;;;18.44;24.92;101456.52;102761;277;115066;-54
2023/05/09 12:18:37;;;;;;;;;;;;;;;18.52;25.08;101451.93;102725;277;94479;-54
2023/05/09 12:21:12;;;;;;;;;;;;;;;18.60;25.20;101450.27;102758;277;97024;-55
2023/05/09 12:23:47;;;;;;;;;;;;;;;18.55;25.07;101453.82;102533;279;118766;-53
2023/05/09 12:26:24;;;;;;;;;;;;;;;18.30;25.02;101445.52;102742;277;103752;-54
2023/05/09 12:28:58;;;;;;;;;;;;;;;18.20;25.15;101449.67;102719;277;114490;-54
2023/05/09 12:31:31;;;;;;;;;;;;;;;18.16;25.20;101446.27;102754;277;93483;-56
2023/05/09 12:34:04;;;;;;;;;;;;;;;18.05;25.24;101437.75;102720;277;96153;-57
2023/05/09 12:36:49;;;;;;;;;;;;;;;18.04;25.36;101433.01;102754;277;119022;-58
2023/05/09 12:39:22;;;;;;;;;;;;;;;18.04;25.22;101426.32;102730;277;105986;-56
2023/05/09 12:42:00;;;;;;;;;;;;;;;17.97;25.25;101423.55;102774;277;114496;-57
2023/05/09 12:44:34;;;;;;;;;;;;;;;17.94;25.38;101418.09;102716;277;94477;-56
2023/05/09 12:47:07;;;;;;;;;;;;;;;17.93;25.22;101415.73;102787;277;97708;-58
2023/05/09 12:49:41;;;;;;;;;;;;;;;18.02;25.66;101412.09;102761;277;119478;-57
2023/05/09 12:52:20;;;;;;;;;;;;;;;18.13;25.88;101411.05;102825;277;106036;-55
2023/05/09 12:54:55;;;;;;;;;;;;;;;18.14;26.00;101415.10;102774;277;114013;-55
2023/05/09 12:57:29;;;;;;;;;;;;;;;18.04;25.65;101407.05;102812;277;93895;-55
2023/05/09 13:00:08;;;;;;;;;;;;;;;17.97;25.48;101397.34;102789;277;96731;-55
2023/05/09 13:02:51;;;;;;;;;;;;;;;17.97;25.68;101387.70;102772;277;119771;-55
2023/05/09 13:05:32;;;;;;;;;;;;;;;18.04;25.74;101383.83;102756;277;104723;-54
2023/05/09 13:08:07;;;;;;;;;;;;;;;18.07;25.93;101379.73;102721;277;113630;-54
2023/05/09 13:10:43;;;;;;;;;;;;;;;18.05;26.09;101388.15;102750;277;94911;-53
2023/05/09 13:13:21;;;;;;;;;;;;;;;18.01;25.97;101383.11;102737;277;98152;-54
2023/05/09 13:15:56;;;;;;;;;;;;;;;17.92;25.85;101384.10;102725;277;118299;-55
2023/05/09 13:18:44;;;;;;;;;;;;;;;17.87;25.74;101379.77;102719;277;104575;-54
2023/05/09 13:21:22;;;;;;;;;;;;;;;17.77;25.96;101389.60;102727;277;113296;-55
2023/05/09 13:23:59;;;;;;;;;;;;;;;17.70;26.20;101381.44;102724;277;94289;-54
2023/05/09 13:26:35;;;;;;;;;;;;;;;17.67;26.06;101380.77;102751;277;95174;-56